Albany, IL

1:44 AM CDT on August 31, 2015 (GMT -0500)
Clinton Municipal | | Change Station
CLOSE
Current Station
Airport
Location: Clinton,
Elevation: 709 ft
Nearby Weather Stations
Active Advisory: Dense Fog Advisory

Elev 709 ft 41.83 °N, 90.33 °W | Updated 29 minutes ago

Clear
Clear
61 °F
Feels Like 61 °F
N
4
Wind Variable Wind from East

Today
High -- | Low -- °F
--% Chance of Precip.
Yesterday
High -- | Low -- °F
Precip. -- in
6:25 AM 7:36 PM
Waning Gibbous, 97% visible
Pressure 30.05 in
Visibility 2.5 miles
Clouds Clear
Dew Point 57 °F
Humidity 88%
Rainfall 0.00 in
Snow Depth Not available.
UV 0 out of 12
Pollen 10.40 out of 12
Air Quality Not available.
Flu Activity Not available.
METAR KCWI 310615Z 09003KT 2 1/2SM CLR 16/14 A3005 RMK AO1
Pressure 30.05 in
Visibility 2.5 miles
Clouds Clear
Dew Point 57 °F
Humidity 88%
Rainfall 0.00 in
Snow Depth Not available.
UV 0 out of 12
Pollen 10.40 out of 12
Air Quality Not available.
Flu Activity Not available.
METAR KCWI 310615Z 09003KT 2 1/2SM CLR 16/14 A3005 RMK AO1

10-Day Weather Forecast

×

Almanac

Astronomy

Aug. 31, 2015 Rise Set
Actual Time
Civil Twilight
Nautical Twilight
Astronomical Twilight
Moon
Length of Visible Light
Length of Day
Tomorrow will be .
, % of the Moon is Illuminated

Today's Extremes

State Highs State Lows

Community

WunderPhotos

Upload Photos

1,851,217 photos uploaded!

WunderBlogs® & News

Nearby

Air Quality

  Air Quality AQ Index Pollutant
Not available.

Snow Depth

Station Depth Elevation

Earthquake Activity

City Distance Mag. Time & Date
Minimum magnitude displayed is 2.5.

Coastal Water Temperatures

Place Temperature

Stations

Nearby Weather Stations

Station Location Temp. Windchill Dew Point Humidity Wind Precip. Elev Updated Type
                   
Dense Fog Advisory
Statement as of 11:52 PM CDT on August 30, 2015

... Dense fog advisory remains in effect until 8 am CDT Monday...

* visibilities... as low as 100 feet to a quarter mile.

* Timing... developing around midnight and continuing through the
early morning commute. Visibilities improving after 8 am.

* Impacts... travel will be difficult and potentially dangerous
with very limited sight distance between vehicles and other
objects.

Precautionary/preparedness actions...

A dense fog advisory means visibilities will frequently be
reduced to less than one quarter mile. If driving... slow down...
use your headlights... and leave plenty of distance ahead of you.



Sheets